createdAt,value
2019-03-25T00:00:07.991Z,63.23
2019-03-25T00:01:07.998Z,63.26
2019-03-25T00:02:07.976Z,63.23
2019-03-25T00:03:07.961Z,62.83
2019-03-25T00:04:07.957Z,63.26
2019-03-25T00:05:08.084Z,62.86
2019-03-25T00:06:07.930Z,63.23
2019-03-25T00:07:07.913Z,63.13
2019-03-25T00:08:07.903Z,63.13
2019-03-25T00:09:07.892Z,63.23
2019-03-25T00:10:07.885Z,63.26
2019-03-25T00:11:08.034Z,63.17
2019-03-25T00:12:07.861Z,63.33
2019-03-25T00:13:07.850Z,63.13
2019-03-25T00:14:07.842Z,63.23
2019-03-25T00:15:07.831Z,63.17
2019-03-25T00:16:07.819Z,63.13
2019-03-25T00:17:07.897Z,63.13
2019-03-25T00:18:07.800Z,63.06
2019-03-25T00:19:07.798Z,63.17
2019-03-25T00:20:07.780Z,63.13
2019-03-25T00:21:07.760Z,63.13
2019-03-25T00:22:07.752Z,63.13
2019-03-25T00:23:07.834Z,62.83
2019-03-25T00:24:07.729Z,63.23
2019-03-25T00:25:07.722Z,62.93
2019-03-25T00:26:07.707Z,63.17
2019-03-25T00:27:07.695Z,62.76
2019-03-25T00:28:07.689Z,63.13
2019-03-25T00:29:07.873Z,63.13
2019-03-25T00:30:07.666Z,63.13
2019-03-25T00:31:07.660Z,62.83
2019-03-25T00:32:07.642Z,62.83
2019-03-25T00:33:07.631Z,62.93
2019-03-25T00:34:07.624Z,62.93
2019-03-25T00:35:07.932Z,62.93
2019-03-25T00:36:07.615Z,62.93
2019-03-25T00:37:07.586Z,63.03
2019-03-25T00:38:07.576Z,63.03
2019-03-25T00:39:07.569Z,62.83
2019-03-25T00:40:07.561Z,63.03
2019-03-25T00:41:07.637Z,62.83
2019-03-25T00:42:07.533Z,62.93
2019-03-25T00:43:07.524Z,62.73
2019-03-25T00:44:07.513Z,63.03
2019-03-25T00:45:07.500Z,63.03
2019-03-25T00:46:07.499Z,62.93
2019-03-25T00:47:07.603Z,62.83
2019-03-25T00:48:07.468Z,62.93
2019-03-25T00:49:07.457Z,63.13
2019-03-25T00:50:07.449Z,63.13
2019-03-25T00:51:07.442Z,63.03
2019-03-25T00:52:07.429Z,63.03
2019-03-25T00:53:07.516Z,63.03
2019-03-25T00:54:07.402Z,63.03
2019-03-25T00:55:07.398Z,62.63
2019-03-25T00:56:07.387Z,62.53
2019-03-25T00:57:07.374Z,62.93
2019-03-25T00:58:07.366Z,62.83
2019-03-25T00:59:07.509Z,62.53
2019-03-25T01:00:07.339Z,62.53
2019-03-25T01:01:07.329Z,62.63
2019-03-25T01:02:07.318Z,62.93
2019-03-25T01:03:07.308Z,62.73
2019-03-25T01:04:07.295Z,62.73
2019-03-25T01:05:07.482Z,62.53
2019-03-25T01:06:07.281Z,62.83
2019-03-25T01:07:07.263Z,62.83
2019-03-25T01:08:07.252Z,62.63
2019-03-25T01:09:07.247Z,62.73
2019-03-25T01:10:07.234Z,62.73
2019-03-25T01:11:07.348Z,62.53
2019-03-25T01:12:07.216Z,62.73
2019-03-25T01:13:07.200Z,62.73
2019-03-25T01:14:07.188Z,62.83
2019-03-25T01:15:07.180Z,62.73
2019-03-25T01:16:07.170Z,63.13
2019-03-25T01:17:07.333Z,62.83
2019-03-25T01:18:16.334Z,62.73
2019-03-25T01:19:08.134Z,62.53
2019-03-25T01:20:07.143Z,62.63
2019-03-25T01:21:07.118Z,62.63
2019-03-25T01:22:07.100Z,62.73
2019-03-25T01:23:07.190Z,62.73
2019-03-25T01:24:07.079Z,62.70
2019-03-25T01:25:07.066Z,62.63
2019-03-25T01:26:07.055Z,62.73
2019-03-25T01:27:07.046Z,62.53
2019-03-25T01:28:07.034Z,62.73
2019-03-25T01:29:07.123Z,62.83
2019-03-25T01:30:07.013Z,62.53
2019-03-25T01:31:07.001Z,62.83
2019-03-25T01:32:06.993Z,62.43
2019-03-25T01:33:06.983Z,62.63
2019-03-25T01:34:06.976Z,62.63
2019-03-25T01:35:07.132Z,62.63
2019-03-25T01:36:06.946Z,62.73
2019-03-25T01:37:06.967Z,62.63
2019-03-25T01:38:06.936Z,62.73
2019-03-25T01:39:06.915Z,62.63
2019-03-25T01:40:06.911Z,62.63
2019-03-25T01:41:06.997Z,62.73
2019-03-25T01:42:06.892Z,62.53
2019-03-25T01:43:06.875Z,62.83
2019-03-25T01:44:06.862Z,62.73
2019-03-25T01:45:06.849Z,62.53
2019-03-25T01:46:06.839Z,62.63
2019-03-25T01:47:06.925Z,62.83
2019-03-25T01:48:06.817Z,62.60
2019-03-25T01:49:06.813Z,62.63
2019-03-25T01:50:06.795Z,62.63
2019-03-25T01:51:06.788Z,62.63
2019-03-25T01:52:06.779Z,62.73
2019-03-25T01:53:07.038Z,62.83
2019-03-25T01:54:06.765Z,62.43
2019-03-25T01:55:13.460Z,62.60
2019-03-25T01:56:07.729Z,62.50
2019-03-25T01:57:06.719Z,62.73
2019-03-25T01:58:06.715Z,62.63
2019-03-25T01:59:06.791Z,62.63
2019-03-25T02:00:06.687Z,62.73
2019-03-25T02:01:06.676Z,62.53
2019-03-25T02:02:06.668Z,62.63
2019-03-25T02:03:06.655Z,62.73
2019-03-25T02:04:06.646Z,62.63
2019-03-25T02:05:06.726Z,62.73
2019-03-25T02:06:06.623Z,62.53
2019-03-25T02:07:06.611Z,62.43
2019-03-25T02:08:06.600Z,62.60
2019-03-25T02:09:06.595Z,62.53
2019-03-25T02:10:06.580Z,62.53
2019-03-25T02:11:06.858Z,62.43
2019-03-25T02:12:06.557Z,62.63
2019-03-25T02:13:06.548Z,62.34
2019-03-25T02:14:06.539Z,62.34
2019-03-25T02:15:06.532Z,62.53
2019-03-25T02:16:06.520Z,62.34
2019-03-25T02:17:06.696Z,62.34
2019-03-25T02:18:06.496Z,62.43
2019-03-25T02:19:06.481Z,62.43
2019-03-25T02:20:06.474Z,62.43
2019-03-25T02:21:06.460Z,62.43
2019-03-25T02:22:06.451Z,62.43
2019-03-25T02:23:06.836Z,62.34
2019-03-25T02:24:06.430Z,62.53
2019-03-25T02:25:06.417Z,62.34
2019-03-25T02:26:06.407Z,62.43
2019-03-25T02:27:06.395Z,62.34
2019-03-25T02:28:06.386Z,62.43
2019-03-25T02:29:06.533Z,62.53
2019-03-25T02:30:06.365Z,62.43
2019-03-25T02:31:06.352Z,62.53
2019-03-25T02:32:06.341Z,62.34
2019-03-25T02:33:06.339Z,62.43
2019-03-25T02:34:06.318Z,62.53
2019-03-25T02:35:06.577Z,62.53
2019-03-25T02:36:06.326Z,62.53
2019-03-25T02:37:06.295Z,62.43
2019-03-25T02:38:06.279Z,62.34
2019-03-25T02:39:06.267Z,62.40
2019-03-25T02:40:06.275Z,62.50
2019-03-25T02:41:06.354Z,62.53
2019-03-25T02:42:06.235Z,62.53
2019-03-25T02:43:06.223Z,62.53
2019-03-25T02:44:06.211Z,62.43
2019-03-25T02:45:06.199Z,62.34
2019-03-25T02:46:06.191Z,62.34
2019-03-25T02:47:06.281Z,62.23
2019-03-25T02:48:06.167Z,62.53
2019-03-25T02:49:06.156Z,62.63
2019-03-25T02:50:06.152Z,62.53
2019-03-25T02:51:06.138Z,62.53
2019-03-25T02:52:06.130Z,62.43
2019-03-25T02:53:06.352Z,62.53
2019-03-25T02:54:06.103Z,62.43
2019-03-25T02:55:06.095Z,62.43
2019-03-25T02:56:06.091Z,62.34
2019-03-25T02:57:06.075Z,62.34
2019-03-25T02:58:06.071Z,62.13
2019-03-25T02:59:06.209Z,62.63
2019-03-25T03:00:06.037Z,62.23
2019-03-25T03:01:06.027Z,62.23
2019-03-25T03:02:06.026Z,62.34
2019-03-25T03:03:06.010Z,62.34
2019-03-25T03:04:06.995Z,62.13
2019-03-25T03:05:06.091Z,62.23
2019-03-25T03:06:05.973Z,62.13
2019-03-25T03:07:05.971Z,62.23
2019-03-25T03:08:05.961Z,62.13
2019-03-25T03:09:05.943Z,62.34
2019-03-25T03:10:05.928Z,62.04
2019-03-25T03:11:06.029Z,62.13
2019-03-25T03:12:05.911Z,62.34
2019-03-25T03:13:05.918Z,62.04
2019-03-25T03:14:05.887Z,62.13
2019-03-25T03:15:05.875Z,62.23
2019-03-25T03:16:05.866Z,61.83
2019-03-25T03:17:06.060Z,62.04
2019-03-25T03:18:05.846Z,61.83
2019-03-25T03:19:05.834Z,61.93
2019-03-25T03:20:05.827Z,61.83
2019-03-25T03:21:05.817Z,62.04
2019-03-25T03:22:05.806Z,61.83
2019-03-25T03:23:05.996Z,62.04
2019-03-25T03:24:05.778Z,62.04
2019-03-25T03:25:05.766Z,61.93
2019-03-25T03:26:05.756Z,61.83
2019-03-25T03:27:05.746Z,61.83
2019-03-25T03:28:05.736Z,62.04
2019-03-25T03:29:05.819Z,61.83
2019-03-25T03:30:05.713Z,62.04
2019-03-25T03:31:05.703Z,62.04
2019-03-25T03:32:05.694Z,62.13
2019-03-25T03:33:05.950Z,61.93
2019-03-25T03:34:05.670Z,62.13
2019-03-25T03:35:05.764Z,61.83
2019-03-25T03:36:05.649Z,61.93
2019-03-25T03:37:05.639Z,62.23
2019-03-25T03:38:05.629Z,61.93
2019-03-25T03:39:05.622Z,62.04
2019-03-25T03:40:05.611Z,61.93
2019-03-25T03:41:05.866Z,62.13
2019-03-25T03:42:05.587Z,61.93
2019-03-25T03:43:05.585Z,61.93
2019-03-25T03:44:05.560Z,61.93
2019-03-25T03:45:05.558Z,62.34
2019-03-25T03:46:05.539Z,62.23
2019-03-25T03:47:05.694Z,62.23
2019-03-25T03:48:05.520Z,61.93
2019-03-25T03:49:05.529Z,61.93
2019-03-25T03:50:05.495Z,62.13
2019-03-25T03:51:05.484Z,62.13
2019-03-25T03:52:05.485Z,62.23
2019-03-25T03:53:05.563Z,62.13
2019-03-25T03:54:05.465Z,62.04
2019-03-25T03:55:05.456Z,61.93
2019-03-25T03:56:12.980Z,62.04
2019-03-25T03:57:06.422Z,61.93
2019-03-25T03:58:05.415Z,62.13
2019-03-25T03:59:05.777Z,61.93
2019-03-25T04:00:05.392Z,61.93
2019-03-25T04:01:05.394Z,61.96
2019-03-25T04:02:05.368Z,61.96
2019-03-25T04:03:05.359Z,61.96
2019-03-25T04:04:05.346Z,62.04
2019-03-25T04:05:05.515Z,61.87
2019-03-25T04:06:05.331Z,61.87
2019-03-25T04:07:05.324Z,61.73
2019-03-25T04:08:05.300Z,61.83
2019-03-25T04:09:05.289Z,62.04
2019-03-25T04:10:05.283Z,62.04
2019-03-25T04:11:05.389Z,61.96
2019-03-25T04:12:05.290Z,62.13
2019-03-25T04:13:05.247Z,62.23
2019-03-25T04:14:05.247Z,62.26
2019-03-25T04:15:05.225Z,62.23
2019-03-25T04:16:05.220Z,62.13
2019-03-25T04:17:05.315Z,61.93
2019-03-25T04:18:05.206Z,62.13
2019-03-25T04:19:05.188Z,61.93
2019-03-25T04:20:05.175Z,61.83
2019-03-25T04:21:05.165Z,61.73
2019-03-25T04:22:05.164Z,61.83
2019-03-25T04:23:05.441Z,61.93
2019-03-25T04:24:05.128Z,61.93
2019-03-25T04:25:05.116Z,61.83
2019-03-25T04:26:05.114Z,61.93
2019-03-25T04:27:05.101Z,61.83
2019-03-25T04:28:05.083Z,61.73
2019-03-25T04:29:05.176Z,61.73
2019-03-25T04:30:05.062Z,62.04
2019-03-25T04:31:05.053Z,62.04
2019-03-25T04:32:06.328Z,61.93
2019-03-25T04:33:05.032Z,62.04
2019-03-25T04:34:05.027Z,62.04
2019-03-25T04:35:05.310Z,61.83
2019-03-25T04:36:05.001Z,61.83
2019-03-25T04:37:05.019Z,61.73
2019-03-25T04:38:04.978Z,61.73
2019-03-25T04:39:04.965Z,61.83
2019-03-25T04:40:04.977Z,61.63
2019-03-25T04:41:05.137Z,61.73
2019-03-25T04:42:04.940Z,61.83
2019-03-25T04:43:04.926Z,61.73
2019-03-25T04:44:04.915Z,61.83
2019-03-25T04:45:04.899Z,61.73
2019-03-25T04:46:04.897Z,61.83
2019-03-25T04:47:04.971Z,61.83
2019-03-25T04:48:04.876Z,61.83
2019-03-25T04:49:04.857Z,61.54
2019-03-25T04:50:04.846Z,61.73
2019-03-25T04:51:04.834Z,61.54
2019-03-25T04:52:04.837Z,61.63
2019-03-25T04:53:04.916Z,61.63
2019-03-25T04:54:04.802Z,61.83
2019-03-25T04:55:04.791Z,61.43
2019-03-25T04:56:04.784Z,61.43
2019-03-25T04:57:04.770Z,61.54
2019-03-25T04:58:04.759Z,61.43
2019-03-25T04:59:05.573Z,61.73
2019-03-25T05:00:04.736Z,61.43
2019-03-25T05:01:04.730Z,61.73
2019-03-25T05:02:04.727Z,61.60
2019-03-25T05:03:04.716Z,61.54
2019-03-25T05:04:04.700Z,61.54
2019-03-25T05:05:04.873Z,61.73
2019-03-25T05:06:04.672Z,61.63
2019-03-25T05:07:04.673Z,61.73
2019-03-25T05:08:04.657Z,61.73
2019-03-25T05:09:04.648Z,61.63
2019-03-25T05:10:04.630Z,61.63
2019-03-25T05:11:04.723Z,61.54
2019-03-25T05:12:04.618Z,61.63
2019-03-25T05:13:04.610Z,61.43
2019-03-25T05:14:04.599Z,61.43
2019-03-25T05:15:04.575Z,61.63
2019-03-25T05:16:04.564Z,61.54
2019-03-25T05:17:04.650Z,61.43
2019-03-25T05:18:04.547Z,61.83
2019-03-25T05:19:04.539Z,61.54
2019-03-25T05:20:04.527Z,61.33
2019-03-25T05:21:04.511Z,61.73
2019-03-25T05:22:04.503Z,61.54
2019-03-25T05:23:04.737Z,61.63
2019-03-25T05:24:04.482Z,61.83
2019-03-25T05:25:04.474Z,61.54
2019-03-25T05:26:04.460Z,61.33
2019-03-25T05:27:04.444Z,61.73
2019-03-25T05:28:04.447Z,61.73
2019-03-25T05:29:04.515Z,61.63
2019-03-25T05:30:04.420Z,61.63
2019-03-25T05:31:04.407Z,61.73
2019-03-25T05:32:04.401Z,61.83
2019-03-25T05:33:04.378Z,61.73
2019-03-25T05:34:04.367Z,61.63
2019-03-25T05:35:04.557Z,61.83
2019-03-25T05:36:04.349Z,61.73
2019-03-25T05:37:04.334Z,61.54
2019-03-25T05:38:04.326Z,61.33
2019-03-25T05:39:04.327Z,61.43
2019-03-25T05:40:04.304Z,61.54
2019-03-25T05:41:04.402Z,61.54
2019-03-25T05:42:04.282Z,61.54
2019-03-25T05:43:04.271Z,61.24
2019-03-25T05:44:04.278Z,61.43
2019-03-25T05:45:04.256Z,61.24
2019-03-25T05:46:04.246Z,61.33
2019-03-25T05:47:04.396Z,61.33
2019-03-25T05:48:04.215Z,61.33
2019-03-25T05:49:04.217Z,61.33
2019-03-25T05:50:04.230Z,61.24
2019-03-25T05:51:04.182Z,61.24
2019-03-25T05:52:04.171Z,61.33
2019-03-25T05:53:05.266Z,61.33
2019-03-25T05:54:04.162Z,61.33
2019-03-25T05:55:04.142Z,61.33
2019-03-25T05:56:04.146Z,61.24
2019-03-25T05:57:04.122Z,61.33
2019-03-25T05:58:04.107Z,61.43
2019-03-25T05:59:04.298Z,61.33
2019-03-25T06:00:04.089Z,61.33
2019-03-25T06:01:04.078Z,61.33
2019-03-25T06:02:04.071Z,61.24
2019-03-25T06:03:04.067Z,61.43
2019-03-25T06:04:04.047Z,61.24
2019-03-25T06:05:04.139Z,61.24
2019-03-25T06:06:04.046Z,61.00
2019-03-25T06:07:04.016Z,61.13
2019-03-25T06:08:04.007Z,60.93
2019-03-25T06:09:03.989Z,61.24
2019-03-25T06:10:03.978Z,61.04
2019-03-25T06:11:04.266Z,61.04
2019-03-25T06:12:03.968Z,61.04
2019-03-25T06:13:03.944Z,61.13
2019-03-25T06:14:03.934Z,61.13
2019-03-25T06:15:03.935Z,61.04
2019-03-25T06:16:03.935Z,61.04
2019-03-25T06:17:04.076Z,61.00
2019-03-25T06:18:03.937Z,61.00
2019-03-25T06:19:03.908Z,61.04
2019-03-25T06:20:03.874Z,61.00
2019-03-25T06:21:03.868Z,61.04
2019-03-25T06:22:03.857Z,61.00
2019-03-25T06:23:03.949Z,60.80
2019-03-25T06:24:03.832Z,60.50
2019-03-25T06:25:03.819Z,60.71
2019-03-25T06:26:03.817Z,60.91
2019-03-25T06:27:13.656Z,60.91
2019-03-25T06:28:04.882Z,60.80
2019-03-25T06:29:03.772Z,60.50
2019-03-25T06:30:03.766Z,60.80
2019-03-25T06:31:03.751Z,60.50
2019-03-25T06:32:03.743Z,60.61
2019-03-25T06:33:11.907Z,60.80
2019-03-25T06:34:04.923Z,60.71
2019-03-25T06:35:03.710Z,60.71
2019-03-25T06:36:03.704Z,60.71
2019-03-25T06:37:03.688Z,60.91
2019-03-25T06:38:03.677Z,60.71
2019-03-25T06:39:03.674Z,61.00
2019-03-25T06:40:03.921Z,60.80
2019-03-25T06:41:03.646Z,60.50
2019-03-25T06:42:03.640Z,60.31
2019-03-25T06:43:03.621Z,60.71
2019-03-25T06:44:03.611Z,60.91
2019-03-25T06:45:03.607Z,60.61
2019-03-25T06:46:03.701Z,60.80
2019-03-25T06:47:03.585Z,60.61
2019-03-25T06:48:03.574Z,60.91
2019-03-25T06:49:03.563Z,60.91
2019-03-25T06:50:03.553Z,60.80
2019-03-25T06:51:03.543Z,60.91
2019-03-25T06:52:03.717Z,60.91
2019-03-25T06:53:03.522Z,60.80
2019-03-25T06:54:03.524Z,60.91
2019-03-25T06:55:03.510Z,61.00
2019-03-25T06:56:03.483Z,60.50
2019-03-25T06:57:03.479Z,60.71
2019-03-25T06:58:03.551Z,60.80
2019-03-25T06:59:03.448Z,60.61
2019-03-25T07:00:03.451Z,60.71
2019-03-25T07:01:03.426Z,60.80
2019-03-25T07:02:03.427Z,60.71
2019-03-25T07:03:03.409Z,60.80
2019-03-25T07:04:03.498Z,60.80
2019-03-25T07:05:03.389Z,60.80
2019-03-25T07:06:03.385Z,60.61
2019-03-25T07:07:03.394Z,60.50
2019-03-25T07:08:03.361Z,60.71
2019-03-25T07:09:03.399Z,60.61
2019-03-25T07:10:03.530Z,61.00
2019-03-25T07:11:03.335Z,60.91
2019-03-25T07:12:03.311Z,60.80
2019-03-25T07:13:03.304Z,60.80
2019-03-25T07:14:04.010Z,60.71
2019-03-25T07:15:03.298Z,60.50
2019-03-25T07:16:03.379Z,60.93
2019-03-25T07:17:03.255Z,60.91
2019-03-25T07:18:03.248Z,60.50
2019-03-25T07:19:03.236Z,60.53
2019-03-25T07:20:03.227Z,60.71
2019-03-25T07:21:03.211Z,60.71
2019-03-25T07:22:03.323Z,60.71
2019-03-25T07:23:03.195Z,60.80
2019-03-25T07:24:03.182Z,60.50
2019-03-25T07:25:03.172Z,60.91
2019-03-25T07:26:03.161Z,60.91
2019-03-25T07:27:03.149Z,60.71
2019-03-25T07:28:03.420Z,60.91
2019-03-25T07:29:03.129Z,60.50
2019-03-25T07:30:03.119Z,60.71
2019-03-25T07:31:03.110Z,61.00
2019-03-25T07:32:03.097Z,61.00
2019-03-25T07:33:03.085Z,60.61
2019-03-25T07:34:03.347Z,61.00
2019-03-25T07:35:03.089Z,60.50
2019-03-25T07:36:03.998Z,60.71
2019-03-25T07:37:03.039Z,60.31
2019-03-25T07:38:03.030Z,60.61
2019-03-25T07:39:03.013Z,60.61
2019-03-25T07:40:03.096Z,60.71
2019-03-25T07:41:02.991Z,60.50
2019-03-25T07:42:02.980Z,60.58
2019-03-25T07:43:02.979Z,60.50
2019-03-25T07:44:02.964Z,60.80
2019-03-25T07:45:02.950Z,60.21
2019-03-25T07:46:03.093Z,60.17
2019-03-25T07:47:02.931Z,60.68
2019-03-25T07:48:04.172Z,60.61
2019-03-25T07:49:02.919Z,60.50
2019-03-25T07:50:02.899Z,60.71
2019-03-25T07:51:02.889Z,60.63
2019-03-25T07:52:02.983Z,61.04
2019-03-25T07:53:02.868Z,61.04
2019-03-25T07:54:02.865Z,61.04
2019-03-25T07:55:02.851Z,61.04
2019-03-25T07:56:02.837Z,61.04
2019-03-25T07:57:02.822Z,61.13
2019-03-25T07:58:02.968Z,60.93
2019-03-25T07:59:02.824Z,61.04
2019-03-25T08:00:13.234Z,60.93
2019-03-25T08:01:03.777Z,61.04
2019-03-25T08:02:02.766Z,61.13
2019-03-25T08:03:02.767Z,61.26
2019-03-25T08:04:03.803Z,61.36
2019-03-25T08:05:02.772Z,61.43
2019-03-25T08:06:02.741Z,61.46
2019-03-25T08:07:02.752Z,61.36
2019-03-25T08:08:02.706Z,61.26
2019-03-25T08:09:04.034Z,61.36
2019-03-25T08:10:02.801Z,61.16
2019-03-25T08:11:02.668Z,61.16
2019-03-25T08:12:02.669Z,61.26
2019-03-25T08:13:02.720Z,61.36
2019-03-25T08:14:02.636Z,61.26
2019-03-25T08:15:02.665Z,61.16
2019-03-25T08:16:03.524Z,61.36
2019-03-25T08:17:02.612Z,61.46
2019-03-25T08:18:02.593Z,61.26
2019-03-25T08:19:02.596Z,61.16
2019-03-25T08:20:02.572Z,61.16
2019-03-25T08:21:02.562Z,61.16
2019-03-25T08:22:02.747Z,61.07
2019-03-25T08:23:02.557Z,60.96
2019-03-25T08:24:02.531Z,61.36
2019-03-25T08:25:02.517Z,61.16
2019-03-25T08:26:02.509Z,61.07
2019-03-25T08:27:02.495Z,61.36
2019-03-25T08:28:02.581Z,61.26
2019-03-25T08:29:02.483Z,60.96
2019-03-25T08:30:02.473Z,61.16
2019-03-25T08:31:02.454Z,60.96
2019-03-25T08:32:02.445Z,60.86
2019-03-25T08:33:02.429Z,60.83
2019-03-25T08:34:02.714Z,60.96
2019-03-25T08:35:02.408Z,60.66
2019-03-25T08:36:02.401Z,60.96
2019-03-25T08:37:04.421Z,60.83
2019-03-25T08:38:02.374Z,60.93
2019-03-25T08:39:02.360Z,60.83
2019-03-25T08:40:02.554Z,60.74
2019-03-25T08:41:02.340Z,60.74
2019-03-25T08:42:02.328Z,60.63
2019-03-25T08:43:02.328Z,60.63
2019-03-25T08:44:02.308Z,60.53
2019-03-25T08:45:02.299Z,60.33
2019-03-25T08:46:02.383Z,60.63
2019-03-25T08:47:02.272Z,60.74
2019-03-25T08:48:02.266Z,60.74
2019-03-25T08:49:02.260Z,60.74
2019-03-25T08:50:02.242Z,60.53
2019-03-25T08:51:02.231Z,60.63
2019-03-25T08:52:02.379Z,60.93
2019-03-25T08:53:02.209Z,60.74
2019-03-25T08:54:02.212Z,60.83
2019-03-25T08:55:02.187Z,60.83
2019-03-25T08:56:02.175Z,60.93
2019-03-25T08:57:02.167Z,60.71
2019-03-25T08:58:11.517Z,60.83
2019-03-25T08:59:03.141Z,60.83
2019-03-25T09:00:02.136Z,60.93
2019-03-25T09:01:02.124Z,60.93
2019-03-25T09:02:02.111Z,60.83
2019-03-25T09:03:02.100Z,60.83
2019-03-25T09:04:02.193Z,60.74
2019-03-25T09:05:02.078Z,60.83
2019-03-25T09:06:02.070Z,60.74
2019-03-25T09:07:02.058Z,60.83
2019-03-25T09:08:02.047Z,60.80
2019-03-25T09:09:02.035Z,61.04
2019-03-25T09:10:02.291Z,61.04
2019-03-25T09:11:02.013Z,60.83
2019-03-25T09:12:02.004Z,60.83
2019-03-25T09:13:01.992Z,60.93
2019-03-25T09:14:01.983Z,60.93
2019-03-25T09:15:01.970Z,60.93
2019-03-25T09:16:02.248Z,60.63
2019-03-25T09:17:01.947Z,60.83
2019-03-25T09:18:01.938Z,60.74
2019-03-25T09:19:01.929Z,60.93
2019-03-25T09:20:01.918Z,60.63
2019-03-25T09:21:01.907Z,60.63
2019-03-25T09:22:01.989Z,60.93
2019-03-25T09:23:01.905Z,60.63
2019-03-25T09:24:01.873Z,60.83
2019-03-25T09:25:01.864Z,60.74
2019-03-25T09:26:01.866Z,60.74
2019-03-25T09:27:01.859Z,60.93
2019-03-25T09:28:01.991Z,60.63
2019-03-25T09:29:01.818Z,60.93
2019-03-25T09:30:03.487Z,60.53
2019-03-25T09:31:01.806Z,61.04
2019-03-25T09:32:01.791Z,60.83
2019-03-25T09:33:01.774Z,60.83
2019-03-25T09:34:02.231Z,60.77
2019-03-25T09:35:01.751Z,60.74
2019-03-25T09:36:01.841Z,60.74
2019-03-25T09:37:01.736Z,60.83
2019-03-25T09:38:01.728Z,60.63
2019-03-25T09:39:01.712Z,60.63
2019-03-25T09:40:01.795Z,60.63
2019-03-25T09:41:01.687Z,60.53
2019-03-25T09:42:01.678Z,60.93
2019-03-25T09:43:01.667Z,60.86
2019-03-25T09:44:01.659Z,60.63
2019-03-25T09:45:01.644Z,60.66
2019-03-25T09:46:01.725Z,60.53
2019-03-25T09:47:01.625Z,60.53
2019-03-25T09:48:01.616Z,60.74
2019-03-25T09:49:01.607Z,60.53
2019-03-25T09:50:01.593Z,60.33
2019-03-25T09:51:01.577Z,60.53
2019-03-25T09:52:01.732Z,60.44
2019-03-25T09:53:01.567Z,60.44
2019-03-25T09:54:01.560Z,60.03
2019-03-25T09:55:01.546Z,60.14
2019-03-25T09:56:01.523Z,60.44
2019-03-25T09:57:01.516Z,60.63
2019-03-25T09:58:01.620Z,60.63
2019-03-25T09:59:01.490Z,60.57
2019-03-25T10:00:01.483Z,60.66
2019-03-25T10:01:01.471Z,60.66
2019-03-25T10:02:01.460Z,60.57
2019-03-25T10:03:01.449Z,60.86
2019-03-25T10:04:01.539Z,60.66
2019-03-25T10:05:01.438Z,60.89
2019-03-25T10:06:01.419Z,60.59
2019-03-25T10:07:01.414Z,61.19
2019-03-25T10:08:01.409Z,61.09
2019-03-25T10:09:01.387Z,60.79
2019-03-25T10:10:01.473Z,60.79
2019-03-25T10:11:01.366Z,60.89
2019-03-25T10:12:01.361Z,61.29
2019-03-25T10:13:01.350Z,60.79
2019-03-25T10:14:01.336Z,61.29
2019-03-25T10:15:01.321Z,61.09
2019-03-25T10:16:01.496Z,60.99
2019-03-25T10:17:01.306Z,61.12
2019-03-25T10:18:01.294Z,61.19
2019-03-25T10:19:01.281Z,61.42
2019-03-25T10:20:01.268Z,61.22
2019-03-25T10:21:01.255Z,61.22
2019-03-25T10:22:01.345Z,61.12
2019-03-25T10:23:01.244Z,61.12
2019-03-25T10:24:01.261Z,61.12
2019-03-25T10:25:01.219Z,61.12
2019-03-25T10:26:01.207Z,61.02
2019-03-25T10:27:01.190Z,60.92
2019-03-25T10:28:01.482Z,60.82
2019-03-25T10:29:01.170Z,60.69
2019-03-25T10:30:01.164Z,60.89
2019-03-25T10:31:01.148Z,60.62
2019-03-25T10:32:01.135Z,60.69
2019-03-25T10:33:01.130Z,60.72
2019-03-25T10:34:01.618Z,60.59
2019-03-25T10:35:01.109Z,60.19
2019-03-25T10:36:01.094Z,60.29
2019-03-25T10:37:01.089Z,60.19
2019-03-25T10:38:01.070Z,60.49
2019-03-25T10:39:01.088Z,60.29
2019-03-25T10:40:01.417Z,60.29
2019-03-25T10:41:01.038Z,60.16
2019-03-25T10:42:01.030Z,60.16
2019-03-25T10:43:01.017Z,59.77
2019-03-25T10:44:01.010Z,60.16
2019-03-25T10:45:01.004Z,59.86
2019-03-25T10:46:01.168Z,60.10
2019-03-25T10:47:00.973Z,59.77
2019-03-25T10:48:00.968Z,59.86
2019-03-25T10:49:00.955Z,59.66
2019-03-25T10:50:00.944Z,59.97
2019-03-25T10:51:00.930Z,59.97
2019-03-25T10:52:01.010Z,59.47
2019-03-25T10:53:00.907Z,59.66
2019-03-25T10:54:00.903Z,60.06
2019-03-25T10:55:00.888Z,60.14
2019-03-25T10:56:00.884Z,59.47
2019-03-25T10:57:00.868Z,59.47
2019-03-25T10:58:01.036Z,59.64
2019-03-25T10:59:00.842Z,59.74
2019-03-25T11:00:00.834Z,59.34
2019-03-25T11:01:00.820Z,59.01
2019-03-25T11:02:00.810Z,58.73
2019-03-25T11:03:00.800Z,59.34
2019-03-25T11:04:00.885Z,59.23
2019-03-25T11:05:00.780Z,59.11
2019-03-25T11:06:00.768Z,59.01
2019-03-25T11:07:00.756Z,58.51
2019-03-25T11:08:00.746Z,58.71
2019-03-25T11:09:00.745Z,58.61
2019-03-25T11:10:00.976Z,58.71
2019-03-25T11:11:00.718Z,58.91
2019-03-25T11:12:00.712Z,58.71
2019-03-25T11:13:00.694Z,58.91
2019-03-25T11:14:00.681Z,59.01
2019-03-25T11:15:00.682Z,59.01
2019-03-25T11:16:00.752Z,58.91
2019-03-25T11:17:00.658Z,58.78
2019-03-25T11:18:00.638Z,58.48
2019-03-25T11:19:00.625Z,58.98
2019-03-25T11:20:00.615Z,58.08
2019-03-25T11:21:00.604Z,58.48
2019-03-25T11:22:00.891Z,58.58
2019-03-25T11:23:00.582Z,58.78
2019-03-25T11:24:00.578Z,58.78
2019-03-25T11:25:00.563Z,58.68
2019-03-25T11:26:00.552Z,58.98
2019-03-25T11:27:00.539Z,58.88
2019-03-25T11:28:00.622Z,59.28
2019-03-25T11:29:04.595Z,59.18
2019-03-25T11:30:01.509Z,59.18
2019-03-25T11:31:00.499Z,59.11
2019-03-25T11:32:00.483Z,59.11
2019-03-25T11:33:00.498Z,59.11
2019-03-25T11:34:00.606Z,59.01
2019-03-25T11:35:00.452Z,59.51
2019-03-25T11:36:02.602Z,59.21
2019-03-25T11:37:00.439Z,59.41
2019-03-25T11:38:00.418Z,60.11
2019-03-25T11:39:00.409Z,59.64
2019-03-25T11:40:00.599Z,59.81
2019-03-25T11:41:00.403Z,59.91
2019-03-25T11:42:00.374Z,60.21
2019-03-25T11:43:00.365Z,59.81
2019-03-25T11:44:00.354Z,59.83
2019-03-25T11:45:00.371Z,59.83
2019-03-25T11:46:00.429Z,59.61
2019-03-25T11:47:00.324Z,59.70
2019-03-25T11:48:00.314Z,59.91
2019-03-25T11:49:00.309Z,59.64
2019-03-25T11:50:00.323Z,60.24
2019-03-25T11:51:00.277Z,59.94
2019-03-25T11:52:00.361Z,59.74
2019-03-25T11:53:00.265Z,60.14
2019-03-25T11:54:00.252Z,59.94
2019-03-25T11:55:00.337Z,59.74
2019-03-25T11:56:00.224Z,60.14
2019-03-25T11:57:00.211Z,60.14
2019-03-25T11:58:00.377Z,59.94
2019-03-25T11:59:00.197Z,60.14
2019-03-25T12:00:00.331Z,60.14
2019-03-25T12:01:00.170Z,59.83
2019-03-25T12:02:00.158Z,60.33
2019-03-25T12:03:00.178Z,60.03
2019-03-25T12:04:00.416Z,60.06
2019-03-25T12:05:00.310Z,60.14
2019-03-25T12:06:00.118Z,60.33
2019-03-25T12:07:00.104Z,60.24
2019-03-25T12:08:00.099Z,60.24
2019-03-25T12:09:00.083Z,59.83
2019-03-25T12:10:00.297Z,60.06
2019-03-25T12:11:00.071Z,60.33
2019-03-25T12:12:00.049Z,60.16
2019-03-25T12:13:00.045Z,60.16
2019-03-25T12:14:01.010Z,60.16
2019-03-25T12:15:01.665Z,60.27
2019-03-25T12:16:00.107Z,60.06
2019-03-25T12:16:59.996Z,60.46
2019-03-25T12:17:59.990Z,60.36
2019-03-25T12:18:59.974Z,60.77
2019-03-25T12:19:59.962Z,60.57
2019-03-25T12:20:59.952Z,60.66
2019-03-25T12:22:00.107Z,60.77
2019-03-25T12:22:59.933Z,60.89
2019-03-25T12:23:59.918Z,60.36
2019-03-25T12:24:59.909Z,60.79
2019-03-25T12:25:59.899Z,60.69
2019-03-25T12:26:59.889Z,60.89
2019-03-25T12:28:00.117Z,60.89
2019-03-25T12:28:59.864Z,61.09
2019-03-25T12:29:59.862Z,60.89
2019-03-25T12:30:59.849Z,60.89
2019-03-25T12:32:01.418Z,61.09
2019-03-25T12:33:04.142Z,61.09
2019-03-25T12:33:59.904Z,60.99
2019-03-25T12:34:59.801Z,61.22
2019-03-25T12:36:00.521Z,61.19
2019-03-25T12:36:59.779Z,61.29
2019-03-25T12:37:59.769Z,61.29
2019-03-25T12:38:59.757Z,61.19
2019-03-25T12:39:59.840Z,61.19
2019-03-25T12:40:59.736Z,61.19
2019-03-25T12:41:59.724Z,61.09
2019-03-25T12:42:59.712Z,60.99
2019-03-25T12:43:59.713Z,61.29
2019-03-25T12:44:59.708Z,61.49
2019-03-25T12:45:59.961Z,61.40
2019-03-25T12:46:59.672Z,61.32
2019-03-25T12:47:59.660Z,61.32
2019-03-25T12:48:59.653Z,61.52
2019-03-25T12:49:59.644Z,61.32
2019-03-25T12:50:59.658Z,61.52
2019-03-25T12:51:59.731Z,61.32